Página principal
METAR-TAF:

METAR-TAF

Aeroportos :

Aeroporto Internacional de Don Mueang

Banguecoque, Tailândia

latitude: 13-54-45N, longitude: 100-36-24E, altura: 4 m

Observação actual do tempo

O boletim foi feito há 22 minutos, às 19:00 UTC
Vento calmo
Temperatura 28°C
Humidade 84%
Pressão 1012 hPa
Visibilidade 10 km ou mais
Poucas nuvensa uma altura de 2000 ft

METAR: VTBD 201900Z 00000KT 9999 FEW020 28/25 Q1012 NOSIG

Hora: 02:22 (19:22 UTC)

Previsão

O boletim foi feito há 2 horas e 22 minutos, às 17:00 UTC
Previsão válida de 20 às 18 UTC a 21 às 24 UTC
Vento 5 kt de norte
Visibilidade 10 km ou mais
Poucas nuvensa uma altura de 2000 ft
Tornando-se
de 21 às 03 UTC a 21 às 05 UTC
Vento 5 kt de este
Tornando-se
de 21 às 18 UTC a 21 às 20 UTC
Vento 5 kt de nor-nordeste

TAF: VTBD 201700Z 2018/2124 35005KT 9999 FEW020 BECMG 2103/2105 10005KT BECMG 2118/2120 03005KT

Observações e previsões do tempo de mais de 4000 aeroportos (mensagens METAR e TAF).

As estações disponíveis são os pontos amarelos e vermelhos sobre o mapa.

Mova o rato sobre o mapa para ver o nome da estação.

Depois clique no ponto para visualizar as observações e previsões meteorológicas.

Para alterar o mapa : clique nos botões verdes com uma cruz preta para aumentar o zoom; no botão verde com uma pitada de zoom; ou nas setas verdes para mapas adjacentes.


METAR-TAF: